首页
METAR-TAF:

METAR-TAF

机场 :

拉多姆, 波兰

纬度: 51-23-21N, 经度: 21-12-49E, 海拔: 186米

当前天气观测

该预报发布于1小时和27分钟前的14:00 UTC
风速6节,风向东北,在东南之间变化
温度 27°C
湿度 42%
气压 1019 hPa
能见度10公里或以上
1500米以下无云,无积雨云

METAR: EPRA 181400Z 05006KT 350V130 CAVOK 27/13 Q1019

时间: 17:27 (15:27 UTC)

预报

该预报发布于1小时和27分钟前的14:00 UTC
预报有效从18日的 15点(UTC)到 18日的 24点(UTC)
风速6节,风向东转东南
能见度10公里或以上
1500米以下无云,无积雨云

TAF: EPRA 181400Z 1815/1824 11006KT CAVOK

超过4000个机场的气象观测和天气预报(METAR&TAF报告)。

可查询的气象台以黄色和红色小点在地图上表示。

将鼠标移到小点上方,可查看气象台名称。

然后点击查看天气观测和预报。

如需切换地图:点击带黑十字的绿色按钮放大地图;点击带横线的绿色按钮缩小地图;或者点击绿色箭头查看邻近地区的地图。


METAR-TAF: